Time;durP1;ratioP1;P1;durP2;ratioP2;P2;SDS_P1;SDS_P2;PMS_P1;PMS_P2;Temp;Humidity;BMP_temperature;BMP_pressure;BME280_temperature;BME280_humidity;BME280_pressure;Samples;Min_cycle;Max_cycle;Signal;HPM_P1;HPM_P2
2024/04/03 00:01:53;;;;;;;5.93;1.67;;;11.10;99.90;;;;;;5120474;28;20438;-68
2024/04/03 00:04:20;;;;;;;1.63;1.47;;;11.10;99.90;;;;;;5120027;28;20492;-68
2024/04/03 00:06:47;;;;;;;3.40;2.27;;;11.10;99.90;;;;;;5119814;28;20460;-67
2024/04/03 00:09:16;;;;;;;2.70;1.57;;;11.10;99.90;;;;;;5120686;28;20433;-67
2024/04/03 00:11:44;;;;;;;2.57;1.60;;;11.00;99.90;;;;;;5120051;28;20465;-68
2024/04/03 00:14:15;;;;;;;1.87;1.40;;;11.00;99.90;;;;;;5120010;28;20430;-68
2024/04/03 00:16:41;;;;;;;2.80;1.37;;;11.10;99.90;;;;;;5102340;28;20472;-68
2024/04/03 00:19:08;;;;;;;4.23;1.33;;;11.00;99.90;;;;;;5101925;28;20438;-67
2024/04/03 00:21:34;;;;;;;4.93;2.10;;;11.10;99.90;;;;;;5119658;28;20422;-68
2024/04/03 00:24:04;;;;;;;4.30;1.70;;;11.00;99.90;;;;;;5119907;28;20480;-68
2024/04/03 00:26:30;;;;;;;2.80;1.70;;;11.10;99.90;;;;;;5101637;28;20507;-69
2024/04/03 00:29:03;;;;;;;3.00;1.50;;;11.10;99.90;;;;;;5120494;28;20430;-68
2024/04/03 00:31:29;;;;;;;2.70;1.90;;;11.10;99.90;;;;;;5120379;28;20423;-68
2024/04/03 00:34:02;;;;;;;4.70;2.00;;;11.10;99.90;;;;;;5120247;28;20450;-67
2024/04/03 00:36:28;;;;;;;1.40;1.20;;;11.00;99.90;;;;;;5120247;28;20468;-69
2024/04/03 00:38:57;;;;;;;2.27;1.60;;;11.10;99.90;;;;;;5101349;28;20426;-69
2024/04/03 00:41:26;;;;;;;2.90;1.63;;;11.00;99.90;;;;;;5119490;28;20439;-68
2024/04/03 00:43:56;;;;;;;3.13;2.10;;;11.10;99.90;;;;;;5119048;28;20480;-69
2024/04/03 00:46:23;;;;;;;2.30;1.40;;;11.10;99.90;;;;;;5119390;28;20438;-68
2024/04/03 00:48:53;;;;;;;5.47;2.80;;;11.10;99.90;;;;;;5119746;28;20435;-69
2024/04/03 00:51:19;;;;;;;2.20;1.83;;;11.10;99.90;;;;;;5118386;28;20456;-70
2024/04/03 00:53:50;;;;;;;3.20;1.90;;;11.00;99.90;;;;;;5101487;28;20521;-69
2024/04/03 00:56:16;;;;;;;5.10;3.00;;;11.00;99.90;;;;;;5119390;28;20454;-68
2024/04/03 00:58:45;;;;;;;7.00;2.40;;;10.90;99.90;;;;;;5119390;28;20446;-68
2024/04/03 01:01:13;;;;;;;3.50;2.33;;;10.90;99.90;;;;;;5119311;28;20452;-68
2024/04/03 01:03:40;;;;;;;3.20;2.23;;;10.90;99.90;;;;;;5119096;28;20473;-67
2024/04/03 01:06:06;;;;;;;4.63;1.63;;;10.90;99.90;;;;;;5119453;28;20479;-68
2024/04/03 01:08:34;;;;;;;4.70;2.00;;;10.90;99.90;;;;;;5118958;28;20452;-68
2024/04/03 01:11:00;;;;;;;6.27;1.70;;;11.00;99.90;;;;;;5119172;28;20438;-68
2024/04/03 01:13:28;;;;;;;2.60;2.30;;;11.00;99.90;;;;;;5118723;28;20438;-69
2024/04/03 01:16:00;;;;;;;2.90;2.10;;;11.00;99.90;;;;;;5118478;28;20465;-67
2024/04/03 01:18:27;;;;;;;3.93;2.10;;;11.00;99.90;;;;;;5119061;28;20425;-67
2024/04/03 01:20:53;;;;;;;2.60;2.40;;;11.00;99.90;;;;;;5118717;28;20460;-68
2024/04/03 01:23:22;;;;;;;2.50;1.87;;;11.00;99.90;;;;;;5118181;28;20458;-67
2024/04/03 01:25:51;;;;;;;4.33;2.17;;;11.00;99.90;;;;;;5118527;28;20488;-68
2024/04/03 01:28:23;;;;;;;2.33;1.90;;;11.00;99.90;;;;;;5118778;28;20465;-68
2024/04/03 01:30:49;;;;;;;6.93;3.30;;;11.00;99.90;;;;;;5118488;28;20422;-68
2024/04/03 01:33:16;;;;;;;2.93;2.23;;;11.00;99.90;;;;;;5118669;28;20434;-68
2024/04/03 01:35:42;;;;;;;4.73;3.33;;;11.00;99.90;;;;;;5118544;28;20481;-68
2024/04/03 01:38:10;;;;;;;4.93;2.70;;;10.90;99.90;;;;;;5118557;28;20425;-67
2024/04/03 01:40:36;;;;;;;4.07;2.93;;;10.90;99.90;;;;;;5118364;28;20227;-68
2024/04/03 01:43:05;;;;;;;10.27;2.30;;;10.80;99.90;;;;;;5117560;28;20470;-67
2024/04/03 01:45:31;;;;;;;2.80;2.20;;;10.80;99.90;;;;;;5117847;28;20469;-68
2024/04/03 01:47:58;;;;;;;4.10;2.43;;;10.80;99.90;;;;;;5118466;28;20457;-69
2024/04/03 01:50:36;;;;;;;3.50;2.33;;;10.80;99.90;;;;;;5117401;28;20459;-67
2024/04/03 01:53:05;;;;;;;7.93;2.57;;;10.80;99.90;;;;;;5117248;28;20510;-68
2024/04/03 01:55:31;;;;;;;4.40;2.33;;;10.80;99.90;;;;;;5117375;28;20473;-68
2024/04/03 01:57:58;;;;;;;5.03;2.83;;;10.90;99.90;;;;;;5117374;28;20458;-69
2024/04/03 02:00:25;;;;;;;3.67;2.77;;;10.80;99.90;;;;;;5117226;28;20434;-68
2024/04/03 02:02:52;;;;;;;4.80;3.20;;;10.80;99.90;;;;;;5117569;28;20442;-68
2024/04/03 02:05:18;;;;;;;7.77;2.87;;;10.80;99.90;;;;;;5117283;28;20457;-67
2024/04/03 02:07:45;;;;;;;6.83;2.47;;;10.80;99.90;;;;;;5117800;28;20472;-68
2024/04/03 02:10:11;;;;;;;4.30;2.63;;;10.90;99.90;;;;;;5117873;28;20450;-67
2024/04/03 02:12:38;;;;;;;7.87;2.80;;;10.90;99.90;;;;;;5117707;28;20449;-68
2024/04/03 02:15:05;;;;;;;4.20;2.83;;;10.80;99.90;;;;;;5117508;28;20472;-68
2024/04/03 02:17:33;;;;;;;3.40;3.10;;;10.80;99.90;;;;;;5117303;28;20483;-68
2024/04/03 02:19:59;;;;;;;12.57;6.83;;;10.80;99.90;;;;;;5117261;28;20449;-68
2024/04/03 02:22:26;;;;;;;7.00;4.20;;;10.80;99.90;;;;;;5115860;28;20445;-67
2024/04/03 02:24:52;;;;;;;5.00;2.30;;;10.80;99.90;;;;;;5115194;28;20541;-67
2024/04/03 02:27:19;;;;;;;5.97;3.27;;;10.80;99.90;;;;;;5117514;28;20422;-68
2024/04/03 02:29:45;;;;;;;3.60;2.80;;;10.80;99.90;;;;;;5117121;28;20450;-67
2024/04/03 02:32:13;;;;;;;5.03;2.87;;;10.80;99.90;;;;;;5117510;28;20438;-68
2024/04/03 02:34:40;;;;;;;4.37;2.77;;;10.80;99.90;;;;;;5117551;28;20422;-69
2024/04/03 02:37:07;;;;;;;6.07;3.40;;;10.80;99.90;;;;;;5117285;28;20466;-68
2024/04/03 02:39:33;;;;;;;6.67;3.30;;;10.70;99.90;;;;;;5117003;28;20449;-68
2024/04/03 02:42:02;;;;;;;3.90;3.50;;;10.80;99.90;;;;;;5116828;28;20430;-67
2024/04/03 02:44:27;;;;;;;7.93;3.67;;;10.70;99.90;;;;;;5116900;28;20496;-67
2024/04/03 02:46:54;;;;;;;4.37;3.17;;;10.80;99.90;;;;;;5116997;28;20461;-68
2024/04/03 02:49:20;;;;;;;5.20;2.47;;;10.80;99.90;;;;;;5117012;28;20433;-68
2024/04/03 02:51:49;;;;;;;6.13;3.60;;;10.80;99.90;;;;;;5117308;28;20465;-68
2024/04/03 02:54:14;;;;;;;5.00;2.97;;;10.80;99.90;;;;;;5116863;28;20441;-69
2024/04/03 02:56:41;;;;;;;6.13;4.10;;;10.80;99.90;;;;;;5116614;28;20454;-67
2024/04/03 02:59:07;;;;;;;10.10;3.47;;;10.80;99.90;;;;;;5117043;28;20430;-68
2024/04/03 03:01:34;;;;;;;4.77;2.83;;;10.80;99.90;;;;;;5116780;28;20834;-69
2024/04/03 03:04:00;;;;;;;4.47;3.27;;;10.80;99.90;;;;;;5116385;28;20481;-68
2024/04/03 03:06:27;;;;;;;4.20;2.70;;;10.80;99.90;;;;;;5116205;28;20474;-69
2024/04/03 03:08:54;;;;;;;7.53;3.67;;;10.80;99.90;;;;;;5117026;28;20861;-68
2024/04/03 03:11:21;;;;;;;4.93;3.50;;;10.80;99.90;;;;;;5116431;28;20453;-68
2024/04/03 03:13:47;;;;;;;5.70;3.30;;;10.80;99.90;;;;;;5116743;28;20462;-67
2024/04/03 03:16:21;;;;;;;3.97;2.50;;;10.80;99.90;;;;;;5116632;28;20462;-67
2024/04/03 03:18:47;;;;;;;9.40;4.50;;;10.80;99.90;;;;;;5116223;28;20425;-67
2024/04/03 03:21:14;;;;;;;10.53;3.73;;;10.80;99.90;;;;;;5116656;28;20438;-67
2024/04/03 03:23:40;;;;;;;7.80;3.80;;;10.80;99.90;;;;;;5116298;28;20521;-69
2024/04/03 03:26:09;;;;;;;5.60;3.80;;;10.80;99.90;;;;;;5116620;28;20442;-68
2024/04/03 03:28:34;;;;;;;6.30;3.23;;;10.80;99.90;;;;;;5116870;28;20470;-69
2024/04/03 03:31:01;;;;;;;9.20;3.03;;;10.80;99.90;;;;;;5116990;28;20437;-67
2024/04/03 03:33:27;;;;;;;7.53;3.83;;;10.80;99.90;;;;;;5116579;28;20200;-69
2024/04/03 03:35:55;;;;;;;5.90;3.50;;;10.70;99.90;;;;;;5116467;28;20483;-69
2024/04/03 03:38:23;;;;;;;6.63;5.73;;;10.70;99.90;;;;;;5099121;28;20543;-68
2024/04/03 03:40:50;;;;;;;5.80;3.00;;;10.70;99.90;;;;;;5116612;28;20442;-69
2024/04/03 03:43:19;;;;;;;5.10;3.47;;;10.70;99.90;;;;;;5116950;28;20458;-68
2024/04/03 03:45:47;;;;;;;6.87;3.87;;;10.70;99.90;;;;;;5117063;28;20458;-68
2024/04/03 03:48:15;;;;;;;5.07;3.70;;;10.70;99.90;;;;;;5117052;28;20425;-68
2024/04/03 03:53:30;;;;;;;9.87;3.63;;;10.70;99.90;;;;;;5116744;28;20421;-68
2024/04/03 03:55:57;;;;;;;5.43;3.77;;;10.70;99.90;;;;;;5116766;28;20458;-68
2024/04/03 03:58:26;;;;;;;8.73;4.17;;;10.70;99.90;;;;;;5116980;28;20449;-68
2024/04/03 04:00:53;;;;;;;7.87;4.90;;;10.60;99.90;;;;;;5117311;28;20433;-68
2024/04/03 04:03:20;;;;;;;10.40;5.03;;;10.50;99.90;;;;;;5116163;28;20445;-68
2024/04/03 04:05:47;;;;;;;9.73;4.97;;;10.50;99.90;;;;;;5116178;28;20461;-69
2024/04/03 04:08:13;;;;;;;11.50;4.73;;;10.50;99.90;;;;;;5116188;28;20446;-68
2024/04/03 04:10:39;;;;;;;14.47;5.13;;;10.50;99.90;;;;;;5116124;28;20422;-69
2024/04/03 04:13:05;;;;;;;6.93;5.03;;;10.60;99.90;;;;;;5115814;28;20452;-67
2024/04/03 04:15:34;;;;;;;5.93;4.13;;;10.60;99.90;;;;;;5119298;28;20438;-68
2024/04/03 04:18:00;;;;;;;8.00;4.70;;;10.50;99.90;;;;;;5119203;28;20200;-69
2024/04/03 04:20:28;;;;;;;8.57;4.40;;;10.40;99.90;;;;;;5119604;28;20449;-69
2024/04/03 04:22:54;;;;;;;6.73;4.77;;;10.30;99.90;;;;;;5119348;28;20449;-70
2024/04/03 04:25:21;;;;;;;6.80;5.07;;;10.20;99.90;;;;;;5118186;28;20504;-69
2024/04/03 04:27:47;;;;;;;8.20;5.67;;;10.20;99.90;;;;;;5119472;28;20449;-69
2024/04/03 04:30:14;;;;;;;6.33;4.80;;;10.20;99.90;;;;;;5118990;28;20448;-70
2024/04/03 04:32:41;;;;;;;5.93;4.20;;;10.10;99.90;;;;;;5118998;28;20434;-69
2024/04/03 04:35:08;;;;;;;5.47;3.60;;;10.00;99.90;;;;;;5118932;28;20465;-70
2024/04/03 04:37:34;;;;;;;5.90;4.00;;;10.00;99.90;;;;;;5118916;28;20454;-70
2024/04/03 04:40:02;;;;;;;3.90;2.97;;;9.90;99.90;;;;;;5119021;28;20436;-69
2024/04/03 04:42:28;;;;;;;3.03;2.73;;;9.90;99.90;;;;;;5118638;28;20944;-69
2024/04/03 04:44:55;;;;;;;4.30;3.27;;;9.90;99.90;;;;;;5119013;28;20470;-69
2024/04/03 04:47:21;;;;;;;4.07;2.83;;;9.90;99.90;;;;;;5119075;28;20445;-69
2024/04/03 04:49:49;;;;;;;4.67;3.20;;;9.90;99.90;;;;;;5118456;28;20438;-69
2024/04/03 04:52:15;;;;;;;3.70;3.30;;;9.90;99.90;;;;;;5118801;28;20212;-69
2024/04/03 04:54:42;;;;;;;9.03;3.57;;;9.90;99.90;;;;;;5118419;28;20442;-69
2024/04/03 04:57:09;;;;;;;9.93;3.20;;;9.80;99.90;;;;;;5118563;28;20442;-69
2024/04/03 04:59:36;;;;;;;7.10;2.90;;;9.80;99.90;;;;;;5119020;28;20441;-69
2024/04/03 05:02:02;;;;;;;3.80;2.73;;;9.80;99.90;;;;;;5118454;28;20445;-69
2024/04/03 05:04:29;;;;;;;7.20;3.20;;;9.70;99.90;;;;;;5118229;28;20856;-69
2024/04/03 05:06:58;;;;;;;5.27;2.87;;;9.70;99.90;;;;;;5118280;28;20437;-69
2024/04/03 05:09:30;;;;;;;8.83;2.63;;;9.70;99.90;;;;;;5118734;28;20468;-69
2024/04/03 05:11:56;;;;;;;11.17;3.37;;;9.70;99.90;;;;;;5118837;28;20965;-68
2024/04/03 05:14:24;;;;;;;7.30;3.67;;;9.70;99.90;;;;;;5118180;28;20469;-67
2024/04/03 05:16:50;;;;;;;4.33;2.53;;;9.70;99.90;;;;;;5118480;28;20458;-68
2024/04/03 05:19:17;;;;;;;6.37;3.17;;;9.70;99.90;;;;;;5118490;28;20461;-68
2024/04/03 05:21:43;;;;;;;4.47;2.40;;;9.80;99.90;;;;;;5118816;28;20441;-68
2024/04/03 05:24:12;;;;;;;8.30;3.70;;;9.90;99.90;;;;;;5100659;28;20458;-68
2024/04/03 05:26:38;;;;;;;5.67;3.27;;;9.80;99.90;;;;;;5117768;28;20485;-67
2024/04/03 05:29:05;;;;;;;3.97;3.50;;;9.80;99.90;;;;;;5118012;28;20446;-69
2024/04/03 05:31:32;;;;;;;11.73;3.20;;;9.80;99.90;;;;;;5100760;28;20449;-68
2024/04/03 05:34:04;;;;;;;7.03;4.10;;;9.80;99.90;;;;;;5118405;28;20468;-68
2024/04/03 05:53:24;;;;;;;5.30;2.27;;;9.80;99.90;;;;;;5099852;28;20453;-67
2024/04/03 05:55:53;;;;;;;6.67;2.80;;;9.80;99.90;;;;;;5098286;28;20431;-64
2024/04/03 05:58:20;;;;;;;6.47;3.00;;;9.90;99.90;;;;;;5108727;28;20433;-64
2024/04/03 06:01:33;;;;;;;8.80;2.90;;;9.90;99.90;;;;;;5107010;28;20426;-65
2024/04/03 06:03:59;;;;;;;4.33;2.90;;;9.90;99.90;;;;;;5099399;28;20545;-65
2024/04/03 06:06:26;;;;;;;7.07;2.93;;;10.00;99.90;;;;;;5117813;28;20442;-64
2024/04/03 06:08:53;;;;;;;4.83;2.83;;;10.00;99.90;;;;;;5098706;28;20427;-65
2024/04/03 06:11:20;;;;;;;5.47;3.07;;;10.00;99.90;;;;;;5097331;28;20439;-67
2024/04/03 06:13:46;;;;;;;8.47;3.57;;;9.90;99.90;;;;;;5096669;28;20431;-66
2024/04/03 06:16:13;;;;;;;6.40;3.27;;;10.00;99.90;;;;;;5103026;28;20446;-66
2024/04/03 06:18:39;;;;;;;3.00;2.40;;;10.00;99.90;;;;;;5117732;28;20444;-66
2024/04/03 06:21:13;;;;;;;5.70;3.07;;;10.10;99.90;;;;;;5114477;28;20433;-66
2024/04/03 06:23:39;;;;;;;4.03;3.40;;;10.20;99.90;;;;;;5100404;28;20453;-66
2024/04/03 06:26:08;;;;;;;5.80;3.10;;;10.20;99.90;;;;;;5096636;28;20450;-67
2024/04/03 06:28:34;;;;;;;9.80;3.83;;;10.30;99.90;;;;;;5096679;28;20442;-67
2024/04/03 06:31:01;;;;;;;8.70;3.30;;;10.30;99.90;;;;;;5096302;28;20430;-67
2024/04/03 06:33:28;;;;;;;4.23;3.13;;;10.40;99.90;;;;;;5097042;28;20458;-66
2024/04/03 06:35:56;;;;;;;5.67;2.90;;;10.50;99.90;;;;;;5096960;28;20459;-67
2024/04/03 06:38:22;;;;;;;2.90;2.70;;;10.50;99.90;;;;;;5096261;28;20462;-66
2024/04/03 06:40:49;;;;;;;7.50;3.60;;;10.40;99.90;;;;;;5096831;28;20443;-67
2024/04/03 06:43:16;;;;;;;2.90;2.17;;;10.40;99.90;;;;;;5097059;28;20443;-64
2024/04/03 06:45:43;;;;;;;7.57;3.73;;;10.40;99.90;;;;;;5111211;28;20498;-63
2024/04/03 06:48:09;;;;;;;8.00;3.00;;;10.40;99.90;;;;;;5117474;28;20442;-64
2024/04/03 06:50:36;;;;;;;7.60;3.33;;;10.50;99.90;;;;;;5100457;28;20461;-63
2024/04/03 06:53:02;;;;;;;5.00;3.33;;;10.50;99.90;;;;;;5097012;28;20443;-63
2024/04/03 06:55:29;;;;;;;3.37;2.70;;;10.60;99.90;;;;;;5098507;28;20463;-64
2024/04/03 06:57:59;;;;;;;4.87;3.27;;;10.60;99.90;;;;;;5103930;28;20434;-65
2024/04/03 07:00:30;;;;;;;3.50;2.80;;;10.60;99.90;;;;;;5096927;28;20445;-64
2024/04/03 07:02:57;;;;;;;5.30;2.97;;;10.60;99.90;;;;;;5097143;28;20412;-65
2024/04/03 07:05:23;;;;;;;4.77;2.53;;;10.50;99.90;;;;;;5096522;28;20487;-65
2024/04/03 07:07:50;;;;;;;3.87;2.70;;;10.50;99.90;;;;;;5096352;28;20435;-64
2024/04/03 07:10:16;;;;;;;5.43;2.90;;;10.60;99.90;;;;;;5096805;28;20435;-64
2024/04/03 07:12:43;;;;;;;3.50;3.00;;;10.60;99.90;;;;;;5096910;28;20458;-63
2024/04/03 07:15:09;;;;;;;4.07;2.73;;;10.60;99.90;;;;;;5096451;28;20455;-64
2024/04/03 07:17:37;;;;;;;3.77;3.00;;;10.60;99.90;;;;;;5096624;28;20469;-64
2024/04/03 07:20:04;;;;;;;7.63;3.00;;;10.50;99.90;;;;;;5097328;28;20447;-64
2024/04/03 07:22:32;;;;;;;9.73;3.47;;;10.50;99.90;;;;;;5096012;28;20451;-64
2024/04/03 07:24:58;;;;;;;8.50;3.13;;;10.50;99.90;;;;;;5096321;28;20498;-64
2024/04/03 07:27:27;;;;;;;6.73;4.37;;;10.40;99.90;;;;;;5096246;28;20447;-64
2024/04/03 07:29:54;;;;;;;10.03;4.27;;;10.50;99.90;;;;;;5095979;28;20827;-64
2024/04/03 07:32:21;;;;;;;6.20;2.90;;;10.50;99.90;;;;;;5096477;28;20498;-64
2024/04/03 07:34:48;;;;;;;6.37;3.10;;;10.50;99.90;;;;;;5095789;28;20442;-64
2024/04/03 07:37:15;;;;;;;19.23;6.20;;;10.60;99.90;;;;;;5095754;28;20437;-64
2024/04/03 07:39:41;;;;;;;5.23;3.53;;;10.70;99.90;;;;;;5096147;28;20442;-64
2024/04/03 07:42:10;;;;;;;5.57;3.67;;;10.70;99.90;;;;;;5096520;28;20443;-64
2024/04/03 07:44:36;;;;;;;7.20;2.83;;;10.70;99.90;;;;;;5095728;28;21076;-65
2024/04/03 07:47:03;;;;;;;5.97;4.13;;;10.70;99.90;;;;;;5095984;28;20439;-64
2024/04/03 07:49:29;;;;;;;4.53;2.80;;;10.70;99.90;;;;;;5098184;28;20435;-64
2024/04/03 07:51:57;;;;;;;6.93;3.20;;;10.80;99.90;;;;;;5100184;28;20457;-63
2024/04/03 07:54:23;;;;;;;3.17;2.60;;;10.80;99.90;;;;;;5100177;28;20431;-64
2024/04/03 07:56:50;;;;;;;6.90;3.83;;;10.90;99.90;;;;;;5099903;28;20454;-63
2024/04/03 07:59:16;;;;;;;8.73;3.83;;;10.90;99.90;;;;;;5099808;28;20478;-64
2024/04/03 08:01:43;;;;;;;7.67;2.80;;;11.00;99.90;;;;;;5099766;28;20472;-64
2024/04/03 08:04:09;;;;;;;5.20;3.87;;;11.10;99.90;;;;;;5099166;28;20470;-64
2024/04/03 08:06:36;;;;;;;6.30;4.33;;;11.10;99.90;;;;;;5099409;28;20450;-63
2024/04/03 08:09:05;;;;;;;6.47;3.80;;;11.10;99.90;;;;;;5099050;28;20450;-63
2024/04/03 08:11:32;;;;;;;10.57;4.70;;;11.20;99.90;;;;;;5099053;28;20450;-63
2024/04/03 08:13:58;;;;;;;5.87;3.80;;;11.30;99.90;;;;;;5098843;28;20470;-63
2024/04/03 08:24:13;;;;;;;7.53;4.30;;;11.30;99.90;;;;;;1354956;26;20554;-61
2024/04/03 08:26:39;;;;;;;5.53;4.10;;;11.30;99.90;;;;;;5019350;28;20444;-60
2024/04/03 08:29:06;;;;;;;6.63;4.43;;;11.40;99.90;;;;;;5018833;28;20453;-60
2024/04/03 08:31:32;;;;;;;5.87;4.70;;;11.90;99.90;;;;;;5019139;28;20480;-60
2024/04/03 08:33:59;;;;;;;8.57;4.40;;;12.70;99.90;;;;;;5018482;28;20489;-62
2024/04/03 08:36:26;;;;;;;8.50;4.50;;;13.10;99.90;;;;;;5017927;28;20441;-61
2024/04/03 08:38:53;;;;;;;5.43;4.20;;;13.30;99.90;;;;;;5018051;28;20832;-58
2024/04/03 08:41:21;;;;;;;5.83;3.87;;;13.40;99.90;;;;;;5019507;28;20442;-60
2024/04/03 08:43:51;;;;;;;5.50;3.90;;;13.50;99.90;;;;;;5018252;28;20480;-61
2024/04/03 08:46:18;;;;;;;6.80;3.73;;;13.40;99.90;;;;;;5017536;28;20484;-62
2024/04/03 08:48:46;;;;;;;6.20;4.33;;;13.50;99.90;;;;;;5018473;28;20450;-61
2024/04/03 08:51:14;;;;;;;5.53;4.47;;;13.40;99.90;;;;;;5017973;28;20442;-59
2024/04/03 08:53:44;;;;;;;10.23;4.60;;;13.20;99.90;;;;;;5017722;28;20524;-62
2024/04/03 08:56:14;;;;;;;8.37;4.43;;;13.10;99.90;;;;;;5018281;28;20461;-60
2024/04/03 08:58:42;;;;;;;7.43;4.23;;;13.00;99.90;;;;;;5019407;28;20509;-61
2024/04/03 09:01:09;;;;;;;5.50;3.97;;;13.00;99.90;;;;;;5018175;28;20934;-61
2024/04/03 09:03:36;;;;;;;7.60;3.73;;;13.00;99.90;;;;;;5019784;28;20465;-60
2024/04/03 09:06:03;;;;;;;4.70;3.83;;;13.00;99.90;;;;;;5018152;28;20485;-61
2024/04/03 09:08:41;;;;;;;5.50;3.77;;;12.80;99.90;;;;;;5018811;28;20508;-61
2024/04/03 09:11:08;;;;;;;7.40;4.53;;;12.80;99.90;;;;;;5018523;28;20578;-62
2024/04/03 09:13:35;;;;;;;6.23;3.83;;;12.70;99.90;;;;;;5018271;28;20473;-62
2024/04/03 09:16:02;;;;;;;5.23;3.10;;;12.80;99.90;;;;;;5018639;28;20445;-62
2024/04/03 09:18:30;;;;;;;5.50;3.40;;;12.80;99.90;;;;;;5018067;28;20465;-62
2024/04/03 09:20:56;;;;;;;4.40;3.07;;;12.80;99.90;;;;;;5018073;28;20452;-61
2024/04/03 09:23:23;;;;;;;4.37;2.73;;;12.80;99.90;;;;;;5017748;28;20945;-61
2024/04/03 09:25:49;;;;;;;6.87;3.10;;;12.90;99.90;;;;;;5017358;28;20478;-61
2024/04/03 09:28:16;;;;;;;4.10;2.80;;;12.90;99.90;;;;;;5017739;28;20942;-56
2024/04/03 09:30:47;;;;;;;2.70;2.10;;;12.70;99.90;;;;;;5016843;28;20426;-59
2024/04/03 09:33:16;;;;;;;4.93;3.30;;;12.60;99.90;;;;;;5017195;28;20533;-60
2024/04/03 09:35:43;;;;;;;4.83;3.10;;;12.50;99.90;;;;;;5017239;28;20453;-61
2024/04/03 09:38:11;;;;;;;5.40;3.70;;;12.50;99.90;;;;;;5017808;28;20442;-59
2024/04/03 09:40:39;;;;;;;4.57;3.20;;;12.70;99.90;;;;;;5018006;28;20452;-61
2024/04/03 09:43:07;;;;;;;3.47;3.17;;;12.80;99.90;;;;;;5017067;28;20477;-60
2024/04/03 09:45:34;;;;;;;3.20;2.77;;;12.90;99.90;;;;;;5016608;28;20485;-59
2024/04/03 09:48:03;;;;;;;3.97;3.33;;;13.10;99.90;;;;;;5016430;28;20445;-59
2024/04/03 09:50:37;;;;;;;6.20;3.83;;;13.10;99.90;;;;;;5017850;28;20456;-62
2024/04/03 09:53:07;;;;;;;4.30;2.90;;;13.20;99.90;;;;;;5019169;28;20844;-61
2024/04/03 09:55:33;;;;;;;3.83;3.10;;;13.50;99.90;;;;;;5018166;28;20465;-61
2024/04/03 09:58:02;;;;;;;3.97;3.03;;;13.70;99.90;;;;;;5018753;28;20992;-62
2024/04/03 10:00:30;;;;;;;6.43;3.27;;;13.80;99.90;;;;;;5017104;28;20992;-62
2024/04/03 10:02:57;;;;;;;9.53;3.80;;;14.00;99.90;;;;;;5016925;28;20445;-61
2024/04/03 10:05:36;;;;;;;6.30;3.23;;;14.00;99.90;;;;;;5017216;28;20517;-58
2024/04/03 10:08:10;;;;;;;11.23;3.73;;;14.20;99.90;;;;;;5018432;28;20437;-60
2024/04/03 10:10:43;;;;;;;5.80;4.00;;;14.30;99.90;;;;;;5017252;28;20456;-61
2024/04/03 10:13:15;;;;;;;7.53;3.63;;;14.10;99.90;;;;;;5015865;28;20454;-61
2024/04/03 10:15:41;;;;;;;9.20;4.07;;;14.00;99.90;;;;;;5015353;28;20446;-62
2024/04/03 10:18:10;;;;;;;8.10;3.97;;;13.90;99.90;;;;;;5016024;28;20447;-62
2024/04/03 10:20:38;;;;;;;5.20;3.80;;;13.80;99.90;;;;;;5016352;28;20446;-61
2024/04/03 10:23:08;;;;;;;9.60;3.93;;;13.90;99.90;;;;;;5016448;28;20564;-58
2024/04/03 10:25:35;;;;;;;7.20;3.50;;;13.90;99.90;;;;;;5015903;28;20486;-60
2024/04/03 10:28:03;;;;;;;6.13;3.03;;;13.90;99.90;;;;;;5015798;28;20822;-61
2024/04/03 10:30:29;;;;;;;4.73;3.30;;;13.90;99.90;;;;;;5016336;28;20445;-60
2024/04/03 10:32:58;;;;;;;6.63;4.20;;;14.10;99.90;;;;;;5016751;28;20441;-60
2024/04/03 10:35:25;;;;;;;6.00;3.67;;;14.10;99.90;;;;;;5016321;28;20473;-59
2024/04/03 10:37:57;;;;;;;11.20;5.97;;;14.20;99.90;;;;;;5017132;28;20500;-60
2024/04/03 10:40:24;;;;;;;8.40;3.63;;;14.20;99.90;;;;;;5016920;28;20499;-59
2024/04/03 10:42:51;;;;;;;9.60;5.50;;;14.30;99.90;;;;;;5016049;28;20441;-62
2024/04/03 10:45:17;;;;;;;6.93;4.23;;;14.30;99.90;;;;;;5016029;28;20493;-60
2024/04/03 10:47:44;;;;;;;5.73;3.70;;;14.20;99.90;;;;;;5016152;28;21091;-61
2024/04/03 10:50:10;;;;;;;6.13;3.67;;;14.10;99.90;;;;;;5016945;28;20445;-60
2024/04/03 10:52:37;;;;;;;5.67;4.07;;;14.20;99.90;;;;;;5017960;28;20930;-58
2024/04/03 10:55:05;;;;;;;3.00;2.60;;;14.20;99.90;;;;;;5016235;28;20465;-61
2024/04/03 10:57:32;;;;;;;5.83;3.57;;;14.20;99.90;;;;;;5016247;28;20456;-61
2024/04/03 10:59:58;;;;;;;8.13;3.23;;;14.10;99.90;;;;;;5016051;28;20441;-61
2024/04/03 11:02:28;;;;;;;5.70;3.97;;;14.00;99.90;;;;;;5016117;28;20446;-61
2024/04/03 11:04:54;;;;;;;5.80;3.00;;;13.80;99.90;;;;;;5015563;28;20572;-59
2024/04/03 11:07:32;;;;;;;5.90;2.80;;;13.70;99.90;;;;;;5015632;28;20878;-61
2024/04/03 11:09:58;;;;;;;6.03;3.20;;;13.60;99.90;;;;;;5015201;28;20694;-60
2024/04/03 11:12:27;;;;;;;5.13;3.63;;;13.50;99.90;;;;;;5014715;28;20495;-61
2024/04/03 11:14:56;;;;;;;5.70;3.47;;;13.50;99.90;;;;;;5043671;23;20487;-61
2024/04/03 11:17:22;;;;;;;6.03;3.60;;;13.50;99.90;;;;;;5054179;28;20509;-60
2024/04/03 11:19:48;;;;;;;18.33;8.83;;;13.40;99.90;;;;;;5053013;28;20448;-59
2024/04/03 11:22:15;;;;;;;6.03;3.03;;;13.40;99.90;;;;;;5053646;28;20444;-60
2024/04/03 11:24:42;;;;;;;4.17;3.10;;;13.30;99.90;;;;;;5056712;28;20471;-61
2024/04/03 11:27:09;;;;;;;9.93;3.27;;;13.40;99.90;;;;;;5058617;28;20454;-58
2024/04/03 11:29:38;;;;;;;7.43;3.20;;;13.30;99.90;;;;;;5058109;28;20486;-59
2024/04/03 11:32:07;;;;;;;5.73;3.13;;;13.30;99.90;;;;;;5058283;28;20439;-60
2024/04/03 11:34:34;;;;;;;4.70;3.10;;;13.30;99.90;;;;;;5058084;28;20468;-58
2024/04/03 11:37:01;;;;;;;8.13;4.20;;;13.30;99.90;;;;;;5058873;28;20443;-62
2024/04/03 11:39:30;;;;;;;7.83;3.27;;;13.30;99.90;;;;;;5059911;28;20448;-60
2024/04/03 11:41:58;;;;;;;10.57;3.83;;;13.20;99.90;;;;;;5058491;28;20442;-61
2024/04/03 11:44:24;;;;;;;8.00;3.40;;;13.10;99.90;;;;;;5057891;28;20483;-59
2024/04/03 11:46:52;;;;;;;6.57;3.63;;;13.10;99.90;;;;;;5058305;28;20888;-59
2024/04/03 11:49:20;;;;;;;6.17;3.80;;;13.00;99.90;;;;;;5058529;28;20467;-61
2024/04/03 11:51:48;;;;;;;5.63;4.20;;;12.90;99.90;;;;;;5058138;28;20506;-60
2024/04/03 11:54:14;;;;;;;7.83;3.80;;;13.00;99.90;;;;;;5057433;28;20505;-61
2024/04/03 11:56:41;;;;;;;6.03;3.50;;;13.00;99.90;;;;;;5060214;28;20483;-61
2024/04/03 11:59:08;;;;;;;4.80;3.63;;;13.00;99.90;;;;;;5060551;28;20478;-60
2024/04/03 12:01:35;;;;;;;5.13;3.90;;;13.00;99.90;;;;;;5061087;28;20450;-59
2024/04/03 12:04:03;;;;;;;6.17;3.80;;;13.00;99.90;;;;;;5059023;28;20463;-60
2024/04/03 12:06:30;;;;;;;6.50;3.73;;;13.10;99.90;;;;;;5058594;28;20987;-60
2024/04/03 12:08:57;;;;;;;8.13;4.20;;;13.10;99.90;;;;;;5058209;28;20449;-60
2024/04/03 12:11:24;;;;;;;3.87;3.47;;;13.10;99.90;;;;;;5058513;28;21013;-61
2024/04/03 12:13:50;;;;;;;8.77;4.17;;;13.10;99.90;;;;;;5060413;28;20505;-61
2024/04/03 12:16:20;;;;;;;6.47;4.57;;;13.10;99.90;;;;;;5063517;28;20823;-61
2024/04/03 12:18:50;;;;;;;6.10;3.90;;;13.10;99.90;;;;;;5059549;28;20448;-61
2024/04/03 12:21:18;;;;;;;6.83;4.90;;;13.20;99.90;;;;;;5059662;28;20440;-60
2024/04/03 12:23:45;;;;;;;12.23;4.87;;;13.20;99.90;;;;;;5059477;28;20906;-61
2024/04/03 12:26:13;;;;;;;6.43;4.07;;;13.30;99.90;;;;;;5058449;28;20502;-61
2024/04/03 12:28:39;;;;;;;5.63;3.83;;;13.30;99.90;;;;;;5058257;28;20440;-59
2024/04/03 12:31:06;;;;;;;8.80;4.50;;;13.40;99.90;;;;;;5058542;28;20448;-59
2024/04/03 12:33:33;;;;;;;5.47;4.07;;;13.40;99.90;;;;;;5057859;28;20459;-59
2024/04/03 12:36:00;;;;;;;5.20;3.40;;;13.40;99.90;;;;;;5057817;28;20455;-60
2024/04/03 12:38:27;;;;;;;6.20;4.87;;;13.30;99.90;;;;;;5057380;28;20444;-59
2024/04/03 12:40:54;;;;;;;8.57;4.73;;;13.40;99.90;;;;;;5057841;28;20455;-61
2024/04/03 12:43:20;;;;;;;6.70;3.63;;;13.40;99.90;;;;;;5058891;28;21104;-60
2024/04/03 12:45:56;;;;;;;7.50;4.20;;;13.50;99.90;;;;;;5058657;28;20562;-61
2024/04/03 12:48:22;;;;;;;6.20;4.40;;;13.60;99.90;;;;;;5058782;28;20210;-61
2024/04/03 12:50:49;;;;;;;8.77;4.63;;;13.60;99.90;;;;;;5057371;28;20463;-60
2024/04/03 13:00:54;;;;;;;6.23;3.97;;;13.50;99.90;;;;;;4724628;26;20509;-61
2024/04/03 13:03:20;;;;;;;5.23;4.67;;;13.40;99.90;;;;;;4997038;28;20478;-59
2024/04/03 13:05:49;;;;;;;6.60;4.20;;;13.40;99.90;;;;;;4996696;28;20474;-61
2024/04/03 13:08:15;;;;;;;7.17;5.47;;;13.40;99.90;;;;;;4997216;28;20477;-61
2024/04/03 13:10:42;;;;;;;7.83;4.70;;;13.40;99.90;;;;;;4995592;28;20442;-61
2024/04/03 13:13:08;;;;;;;7.50;6.13;;;13.40;99.90;;;;;;5000274;28;20438;-61
2024/04/03 13:15:35;;;;;;;11.10;5.03;;;13.40;99.90;;;;;;5001250;28;20461;-61
2024/04/03 13:18:03;;;;;;;6.33;5.00;;;13.40;99.90;;;;;;5001867;28;20470;-61
2024/04/03 13:20:32;;;;;;;7.53;4.83;;;13.40;99.90;;;;;;5006141;28;20939;-61
2024/04/03 13:22:58;;;;;;;9.23;4.77;;;13.40;99.90;;;;;;5002378;28;20447;-61
2024/04/03 13:25:25;;;;;;;8.97;4.90;;;13.40;99.90;;;;;;4979576;28;20479;-61